Hestrud (Nord, France) - 208 m
Donnes mto: Actuelle lundi, 19/02/2018 20:46
Date Horaire Temp Out Temp. E. min Temp. E. max Temp. Sol 1 Hum Out Hum. Sol 1 Press Rain Wind Dir Dir Solar Ev.Tr. UV Hi Solar Rad Dew Point Windchill Wind (Gust)
19/02/2018 20:46 1,0 C 0,9 C 1,0 C 1,1 C 95 % 51 cb 1017,1 hPa 0,0 mm 0,0 km/h (0 Bft) N 0 0 min 0,000 mm 0,0 UV-I 0 W/m 0,3 C 1,0 C 0,0 km/h (0 Bft)
19/02/2018 19:46 1,1 C 1,1 C 1,1 C 1,1 C 95 % 51 cb 1017,0 hPa 0,0 mm 0,0 km/h (0 Bft) N 0 0 min 0,000 mm 0,0 UV-I 0 W/m 0,4 C 1,1 C 0,0 km/h (0 Bft)
19/02/2018 18:46 1,3 C 1,3 C 1,3 C 1,1 C 94 % 51 cb 1017,2 hPa 0,2 mm 0,0 km/h (0 Bft) N 0 0 min 0,000 mm 0,0 UV-I 0 W/m 0,4 C 1,3 C 0,0 km/h (0 Bft)
19/02/2018 17:46 2,1 C 2,1 C 2,1 C 1,7 C 91 % 52 cb 1017,2 hPa 0,2 mm 0,0 km/h (0 Bft) N 0 0 min 0,025 mm 0,0 UV-I 11 W/m 0,8 C 2,1 C 0,0 km/h (0 Bft)
19/02/2018 16:46 2,6 C 2,6 C 2,6 C 2,2 C 86 % 52 cb 1017,6 hPa 0,0 mm 8,0 km/h (2 Bft) S-SO 202 0 min 0,051 mm 0,0 UV-I 26 W/m 0,5 C 1,1 C 9,7 km/h (2 Bft)
19/02/2018 15:46 3,4 C 3,4 C 3,4 C 3,3 C 83 % 54 cb 1017,9 hPa 0,0 mm 6,4 km/h (2 Bft) S-SE 157 0 min 0,076 mm 0,0 UV-I 105 W/m 0,8 C 3,4 C 11,3 km/h (2 Bft)
19/02/2018 14:46 3,3 C 3,3 C 3,3 C 3,3 C 82 % 55 cb 1018,3 hPa 0,0 mm 6,4 km/h (2 Bft) S 180 43 min 0,076 mm 0,7 UV-I 139 W/m 0,5 C 3,3 C 11,3 km/h (2 Bft)
19/02/2018 13:46 3,0 C 3,0 C 3,0 C 3,3 C 83 % 59 cb 1018,7 hPa 0,0 mm 6,4 km/h (2 Bft) SE 135 60 min 0,102 mm 1,0 UV-I 190 W/m 0,4 C 3,0 C 11,3 km/h (2 Bft)
19/02/2018 12:46 2,3 C 2,3 C 2,3 C 2,8 C 86 % 66 cb 1019,0 hPa 0,0 mm 6,4 km/h (2 Bft) S-SE 157 60 min 0,076 mm 1,3 UV-I 258 W/m 0,2 C 2,3 C 11,3 km/h (2 Bft)
19/02/2018 11:46 0,9 C 0,9 C 0,9 C 1,1 C 89 % 67 cb 1019,5 hPa 0,0 mm 6,4 km/h (2 Bft) S-SE 157 38 min 0,051 mm 1,1 UV-I 237 W/m -0,7 C 0,9 C 11,3 km/h (2 Bft)
19/02/2018 10:46 -0,2 C -0,2 C -0,2 C 0,0 C 91 % 67 cb 1019,5 hPa 0,0 mm 12,9 km/h (3 Bft) SE 135 0 min 0,025 mm 0,6 UV-I 134 W/m -1,5 C -5,9 C 20,9 km/h (4 Bft)
19/02/2018 09:46 -0,9 C -1,0 C -0,9 C -0,6 C 93 % 66 cb 1019,9 hPa 0,0 mm 6,4 km/h (2 Bft) S 180 0 min 0,000 mm 0,0 UV-I 102 W/m -1,9 C -0,9 C 11,3 km/h (2 Bft)
19/02/2018 08:46 -1,6 C -1,6 C -1,6 C -1,7 C 94 % 64 cb 1020,1 hPa 0,0 mm 9,7 km/h (2 Bft) SO 225 0 min 0,000 mm 0,0 UV-I 34 W/m -2,4 C -5,0 C 16,1 km/h (3 Bft)
19/02/2018 07:46 -1,8 C -1,8 C -1,8 C -2,2 C 94 % 63 cb 1020,4 hPa 0,0 mm 0,0 km/h (0 Bft) N 0 0 min 0,000 mm 0,0 UV-I 0 W/m -2,6 C -1,8 C 0,0 km/h (0 Bft)
19/02/2018 06:46 -1,8 C -1,8 C -1,8 C -2,2 C 94 % 62 cb 1020,2 hPa 0,0 mm 0,0 km/h (0 Bft) N 0 0 min 0,000 mm 0,0 UV-I 0 W/m -2,6 C -1,8 C 0,0 km/h (0 Bft)
19/02/2018 05:46 -1,9 C -1,9 C -1,8 C -2,2 C 94 % 61 cb 1020,4 hPa 0,0 mm 0,0 km/h (0 Bft) N 0 0 min 0,000 mm 0,0 UV-I 0 W/m -2,7 C -1,9 C 0,0 km/h (0 Bft)
19/02/2018 04:46 -1,7 C -1,7 C -1,7 C -1,7 C 94 % 60 cb 1020,7 hPa 0,0 mm 6,4 km/h (2 Bft) S 180 0 min 0,000 mm 0,0 UV-I 0 W/m -2,5 C -1,7 C 9,7 km/h (2 Bft)
19/02/2018 03:46 -1,6 C -1,6 C -1,6 C -1,7 C 94 % 59 cb 1021,0 hPa 0,0 mm 9,7 km/h (2 Bft) SE 135 0 min 0,000 mm 0,0 UV-I 0 W/m -2,4 C -5,0 C 14,5 km/h (3 Bft)
19/02/2018 02:46 -1,6 C -1,6 C -1,6 C -1,7 C 94 % 58 cb 1021,8 hPa 0,0 mm 3,2 km/h (1 Bft) SE 135 0 min 0,000 mm 0,0 UV-I 0 W/m -2,4 C -1,6 C 11,3 km/h (2 Bft)
19/02/2018 01:46 -1,6 C -1,6 C -1,5 C -2,2 C 93 % 57 cb 1022,1 hPa 0,0 mm 0,0 km/h (0 Bft) N 0 0 min 0,000 mm 0,0 UV-I 0 W/m -2,6 C -1,6 C 0,0 km/h (0 Bft)
19/02/2018 00:46 -1,4 C -1,4 C -1,4 C -2,2 C 92 % 56 cb 1022,4 hPa 0,0 mm 0,0 km/h (0 Bft) N 0 0 min 0,000 mm 0,0 UV-I 0 W/m -2,5 C -1,4 C 0,0 km/h (0 Bft)
18/02/2018 23:46 -1,0 C -1,0 C -1,0 C -1,7 C 91 % 56 cb 1022,7 hPa 0,0 mm 0,0 km/h (0 Bft) N 0 0 min 0,000 mm 0,0 UV-I 0 W/m -2,3 C -1,0 C 0,0 km/h (0 Bft)
18/02/2018 22:46 -0,3 C -0,3 C -0,2 C -1,1 C 88 % 56 cb 1023,2 hPa 0,0 mm 0,0 km/h (0 Bft) N 0 0 min 0,000 mm 0,0 UV-I 0 W/m -2,0 C -0,3 C 0,0 km/h (0 Bft)
18/02/2018 21:46 0,2 C 0,2 C 0,2 C -0,6 C 86 % 55 cb 1023,5 hPa 0,0 mm 0,0 km/h (0 Bft) N 0 0 min 0,000 mm 0,0 UV-I 0 W/m -1,9 C 0,2 C 0,0 km/h (0 Bft)
18/02/2018 21:00 0,7 C 0,7 C 0,7 C -0,6 C 85 % 55 cb 1023,9 hPa 0,0 mm 0,0 km/h (0 Bft) N 0 0 min 0,000 mm 0,0 UV-I 0 W/m -1,5 C 0,7 C 0,0 km/h (0 Bft)
_ Min-Heure 05:42 05:42 05:45 00:18 14:17 18:23 19:46 - 21:00 - - - - - - 01:07 07:24 21:00
Minimum _ -1,9 C -1,9 C -1,9 C -2,2 C 82 % 51 cb 1017,0 hPa - 0,0 km/h (0 Bft) - - - - - - -2,8 C -6,6 C 0,0 km/h (0 Bft)
_ Max-Heure 14:31 14:33 14:31 14:12 19:05 11:07 21:00 17:33 10:46 - - 11:09 13:00 12:26 12:40 17:36 14:31 10:46
Maximum _ 3,4 C 3,4 C 3,4 C 3,9 C 95 % 68 cb 1023,9 hPa 0,2 mm 12,9 km/h
SE (3 Bft)
- - 1 min 0,102 mm 1,3 UV-I 280 W/m 0,9 C 3,4 C 20,9 km/h
SE (4 Bft)
Moyenne _ 0,2 C 0,2 C 0,2 C -0,1 C 90 % 58 cb 1020,3 hPa #0,4 mm 2,8 km/h (1 Bft) S-SO - #3:21 h #0,482 mm 0,9 UV-I 58 W/m -1,3 C -0,2 C 5,0 km/h (1 Bft)